MSC Agadir — VRLC2 — position and weather

sailwx.info

Track history (hours):
 
Tides and Currents Weather Stations Pressure Air Temp Water Temp Dewpoint Dewpoint Depression Visibility Wind Speed Wind Dir Waves Ship Positions

MSC Agadir

Last reported at 2017-Nov-22 20:30 UTC. Time now 2017-Nov-22 20:39 UTC.
Position N 38°35' E 015°40'.

Length 299 m; draft 8.4 m.

Type: Ship (hazmat cat D). MMSI: 477001100.

Date/timePositionNaut miles runAvg speedWind from/ knotsBaromVisibWave heightAir tempDewpointWater temp
2017-Nov-22 20:30N 38°35' E 015°40'510.6
2017-Nov-22 19:59N 38°39' E 015°35'510.8
2017-Nov-22 19:30N 38°43' E 015°31'  
2017-Nov-20 00:30N 44°14' E 008°46'612.3
2017-Nov-20 00:00N 44°20' E 008°42'5 9.5
2017-Nov-19 23:30N 44°24' E 008°44'2 4.7
2017-Nov-19 23:00N 44°25' E 008°47'0 0.0
2017-Nov-19 22:30N 44°25' E 008°47'0 0.0
2017-Nov-19 22:00N 44°25' E 008°47'0 0.0
2017-Nov-19 21:30N 44°25' E 008°47'0 0.0
2017-Nov-19 21:00N 44°25' E 008°47'0 0.0
2017-Nov-19 20:30N 44°25' E 008°47'0 0.0
2017-Nov-19 20:00N 44°25' E 008°47'0 0.0
2017-Nov-19 19:30N 44°25' E 008°47'0 0.0
2017-Nov-19 19:00N 44°25' E 008°47'0 0.0
2017-Nov-19 18:30N 44°25' E 008°47'0 0.0
2017-Nov-19 18:00N 44°25' E 008°47'0 0.0
2017-Nov-19 17:30N 44°25' E 008°47'0 0.0
2017-Nov-19 17:00N 44°25' E 008°47'0 0.0
2017-Nov-19 16:30N 44°25' E 008°47'0 0.0
2017-Nov-19 16:00N 44°25' E 008°47'0 0.0
2017-Nov-19 15:30N 44°25' E 008°47'0 0.0
2017-Nov-19 15:00N 44°25' E 008°47'0 0.0
2017-Nov-19 14:30N 44°25' E 008°47'0 0.0
2017-Nov-19 14:00N 44°25' E 008°47'0 0.0
2017-Nov-19 13:30N 44°25' E 008°47'0 0.0
2017-Nov-19 13:00N 44°25' E 008°47'0 0.0
2017-Nov-19 12:30N 44°25' E 008°47'0 0.0
2017-Nov-19 12:00N 44°25' E 008°47'0 0.0
2017-Nov-19 11:30N 44°25' E 008°47'0 0.0
2017-Nov-19 11:00N 44°25' E 008°47'0 0.0
2017-Nov-19 10:30N 44°25' E 008°47'0 0.0
2017-Nov-19 10:00N 44°25' E 008°47'0 0.1
2017-Nov-19 09:30N 44°25' E 008°47'2 4.5
2017-Nov-19 09:00N 44°24' E 008°45'4 7.3
2017-Nov-19 08:30N 44°21' E 008°42'714.2
2017-Nov-19 08:00N 44°14' E 008°38'714.6
2017-Nov-19 07:31N 44°08' E 008°34'714.5
2017-Nov-19 07:00N 44°01' E 008°31'714.4
2017-Nov-19 06:30N 43°54' E 008°27'714.0
2017-Nov-19 06:00N 43°48' E 008°21'714.9
2017-Nov-19 05:30N 43°44' E 008°14'1914.8
2017-Nov-19 04:15N 43°32' E 007°54'514.5
2017-Nov-19 03:56N 43°29' E 007°49'614.7
2017-Nov-19 03:30N 43°25' E 007°42'715.0
2017-Nov-19 03:01N 43°20' E 007°35'815.4
2017-Nov-19 02:30N 43°15' E 007°26'714.9
2017-Nov-19 02:00N 43°10' E 007°19'714.6
2017-Nov-19 01:30N 43°05' E 007°11'814.9
2017-Nov-19 00:57N 42°60' E 007°03'1515.2
2017-Nov-18 23:59N 42°50' E 006°47'244 4.7
2017-Nov-16 20:10N 40°59' E 001°55'316.5
2017-Nov-16 20:00N 41°02' E 001°57'816.9
2017-Nov-16 19:30N 41°08' E 002°03'817.0
2017-Nov-16 19:00N 41°15' E 002°10'3 0.1
2017-Nov-15 17:43N 41°18' E 002°09'1 1.7
2017-Nov-15 17:02N 41°19' E 002°10'0 8.3
2017-Nov-15 17:00N 41°18' E 002°11'4 8.3
2017-Nov-15 16:30N 41°14' E 002°10'917.6
2017-Nov-15 16:00N 41°07' E 002°05'1019.2
2017-Nov-15 15:30N 40°58' E 001°59'19819.6
2017-Nov-15 05:23N 38°04' W 000°05'1120.9
2017-Nov-15 04:53N 37°55' W 000°12'820.8
2017-Nov-15 04:30N 37°49' W 000°18'1020.7
2017-Nov-15 04:01N 37°40' W 000°25'1020.6
2017-Nov-15 03:30N 37°32' W 000°33'1020.6
2017-Nov-15 03:00N 37°25' W 000°42'1020.5
2017-Nov-15 02:30N 37°18' W 000°52'1020.3
2017-Nov-15 02:00N 37°12' W 001°02'21518.8
2017-Nov-14 14:33N 36°00' W 005°14'120.5
2017-Nov-14 14:30N 35°60' W 005°15'1020.9
2017-Nov-14 14:00N 35°57' W 005°28'69019.2
2017-Nov-13 01:59N 28°08' W 015°25'0 0.0
2017-Nov-13 01:29N 28°08' W 015°25'0 0.0
2017-Nov-13 00:59N 28°08' W 015°25'0 0.0
2017-Nov-13 00:29N 28°08' W 015°25'0 0.0
2017-Nov-12 23:50N 28°08' W 015°25'0 0.0
2017-Nov-12 23:20N 28°08' W 015°25'0 0.0
2017-Nov-12 22:53N 28°08' W 015°25'0 0.0
2017-Nov-12 22:23N 28°08' W 015°25'0 0.0
2017-Nov-12 21:50N 28°08' W 015°25'0 0.0
2017-Nov-12 21:23N 28°08' W 015°25'0 0.0
2017-Nov-12 20:53N 28°08' W 015°25'  
Track history (hours):
 
Tides and Currents Weather Stations Pressure Air Temp Water Temp Dewpoint Dewpoint Depression Visibility Wind Speed Wind Dir Waves Ship Positions

MSC Agadir

Last reported at 2017-Nov-22 20:30 UTC. Time now 2017-Nov-22 20:39 UTC.
Position N 38°35' E 015°40'.

Length 299 m; draft 8.4 m.

Type: Ship (hazmat cat D). MMSI: 477001100.

Date/timePositionNaut miles runAvg speedWind from/ knotsBaromVisibWave heightAir tempDewpointWater temp
2017-Nov-22 20:30N 38°35' E 015°40'510.6
2017-Nov-22 19:59N 38°39' E 015°35'510.8
2017-Nov-22 19:30N 38°43' E 015°31'  
2017-Nov-20 00:30N 44°14' E 008°46'612.3
2017-Nov-20 00:00N 44°20' E 008°42'5 9.5
2017-Nov-19 23:30N 44°24' E 008°44'2 4.7
2017-Nov-19 23:00N 44°25' E 008°47'0 0.0
2017-Nov-19 22:30N 44°25' E 008°47'0 0.0
2017-Nov-19 22:00N 44°25' E 008°47'0 0.0
2017-Nov-19 21:30N 44°25' E 008°47'0 0.0
2017-Nov-19 21:00N 44°25' E 008°47'0 0.0
2017-Nov-19 20:30N 44°25' E 008°47'0 0.0
2017-Nov-19 20:00N 44°25' E 008°47'0 0.0
2017-Nov-19 19:30N 44°25' E 008°47'0 0.0
2017-Nov-19 19:00N 44°25' E 008°47'0 0.0
2017-Nov-19 18:30N 44°25' E 008°47'0 0.0
2017-Nov-19 18:00N 44°25' E 008°47'0 0.0
2017-Nov-19 17:30N 44°25' E 008°47'0 0.0
2017-Nov-19 17:00N 44°25' E 008°47'0 0.0
2017-Nov-19 16:30N 44°25' E 008°47'0 0.0
2017-Nov-19 16:00N 44°25' E 008°47'0 0.0
2017-Nov-19 15:30N 44°25' E 008°47'0 0.0
2017-Nov-19 15:00N 44°25' E 008°47'0 0.0
2017-Nov-19 14:30N 44°25' E 008°47'0 0.0
2017-Nov-19 14:00N 44°25' E 008°47'0 0.0
2017-Nov-19 13:30N 44°25' E 008°47'0 0.0
2017-Nov-19 13:00N 44°25' E 008°47'0 0.0
2017-Nov-19 12:30N 44°25' E 008°47'0 0.0
2017-Nov-19 12:00N 44°25' E 008°47'0 0.0
2017-Nov-19 11:30N 44°25' E 008°47'0 0.0
2017-Nov-19 11:00N 44°25' E 008°47'0 0.0
2017-Nov-19 10:30N 44°25' E 008°47'0 0.0
2017-Nov-19 10:00N 44°25' E 008°47'0 0.1
2017-Nov-19 09:30N 44°25' E 008°47'2 4.5
2017-Nov-19 09:00N 44°24' E 008°45'4 7.3
2017-Nov-19 08:30N 44°21' E 008°42'714.2
2017-Nov-19 08:00N 44°14' E 008°38'714.6
2017-Nov-19 07:31N 44°08' E 008°34'714.5
2017-Nov-19 07:00N 44°01' E 008°31'714.4
2017-Nov-19 06:30N 43°54' E 008°27'714.0
2017-Nov-19 06:00N 43°48' E 008°21'714.9
2017-Nov-19 05:30N 43°44' E 008°14'1914.8
2017-Nov-19 04:15N 43°32' E 007°54'514.5
2017-Nov-19 03:56N 43°29' E 007°49'614.7
2017-Nov-19 03:30N 43°25' E 007°42'715.0
2017-Nov-19 03:01N 43°20' E 007°35'815.4
2017-Nov-19 02:30N 43°15' E 007°26'714.9
2017-Nov-19 02:00N 43°10' E 007°19'714.6
2017-Nov-19 01:30N 43°05' E 007°11'814.9
2017-Nov-19 00:57N 42°60' E 007°03'1515.2
2017-Nov-18 23:59N 42°50' E 006°47'244 4.7
2017-Nov-16 20:10N 40°59' E 001°55'316.5
2017-Nov-16 20:00N 41°02' E 001°57'816.9
2017-Nov-16 19:30N 41°08' E 002°03'817.0
2017-Nov-16 19:00N 41°15' E 002°10'3 0.1
2017-Nov-15 17:43N 41°18' E 002°09'1 1.7
2017-Nov-15 17:02N 41°19' E 002°10'0 8.3
2017-Nov-15 17:00N 41°18' E 002°11'4 8.3
2017-Nov-15 16:30N 41°14' E 002°10'917.6
2017-Nov-15 16:00N 41°07' E 002°05'1019.2
2017-Nov-15 15:30N 40°58' E 001°59'19819.6
2017-Nov-15 05:23N 38°04' W 000°05'1120.9
2017-Nov-15 04:53N 37°55' W 000°12'820.8
2017-Nov-15 04:30N 37°49' W 000°18'1020.7
2017-Nov-15 04:01N 37°40' W 000°25'1020.6
2017-Nov-15 03:30N 37°32' W 000°33'1020.6
2017-Nov-15 03:00N 37°25' W 000°42'1020.5
2017-Nov-15 02:30N 37°18' W 000°52'1020.3
2017-Nov-15 02:00N 37°12' W 001°02'21518.8
2017-Nov-14 14:33N 36°00' W 005°14'120.5
2017-Nov-14 14:30N 35°60' W 005°15'1020.9
2017-Nov-14 14:00N 35°57' W 005°28'69019.2
2017-Nov-13 01:59N 28°08' W 015°25'0 0.0
2017-Nov-13 01:29N 28°08' W 015°25'0 0.0
2017-Nov-13 00:59N 28°08' W 015°25'0 0.0
2017-Nov-13 00:29N 28°08' W 015°25'0 0.0
2017-Nov-12 23:50N 28°08' W 015°25'0 0.0
2017-Nov-12 23:20N 28°08' W 015°25'0 0.0
2017-Nov-12 22:53N 28°08' W 015°25'0 0.0
2017-Nov-12 22:23N 28°08' W 015°25'0 0.0
2017-Nov-12 21:50N 28°08' W 015°25'0 0.0
2017-Nov-12 21:23N 28°08' W 015°25'0 0.0
2017-Nov-12 20:53N 28°08' W 015°25'  

Dump ship's entire track history